Time;durP1;ratioP1;P1;durP2;ratioP2;P2;SDS_P1;SDS_P2;PMS_P1;PMS_P2;Temp;Humidity;BMP_temperature;BMP_pressure;BME280_temperature;BME280_humidity;BME280_pressure;Samples;Min_cycle;Max_cycle;Signal;HPM_P1;HPM_P2
2022/05/20 00:00:31;;;;;;;;;;;24.00;50.80;;;;;;6176463;28;19929;-53
2022/05/20 00:03:34;;;;;;;;;;;23.80;50.70;;;;;;6182676;28;19929;-55
2022/05/20 00:06:36;;;;;;;;;;;24.00;50.80;;;;;;6172214;28;20875;-52
2022/05/20 00:09:37;;;;;;;;;;;23.80;50.70;;;;;;6184942;28;19967;-52
2022/05/20 00:12:40;;;;;;;;;;;24.00;50.70;;;;;;6185051;28;19921;-51
2022/05/20 00:15:42;;;;;;;;;;;23.80;50.70;;;;;;6181799;28;19925;-54
2022/05/20 00:18:44;;;;;;;;;;;24.00;50.80;;;;;;6177452;28;19921;-53
2022/05/20 00:21:45;;;;;;;;;;;23.70;50.60;;;;;;6180534;28;20087;-54
2022/05/20 00:27:57;;;;;;;;;;;23.70;50.60;;;;;;6183820;28;20892;-57
2022/05/20 00:31:02;;;;;;;;;;;24.00;50.70;;;;;;6156894;28;20039;-53
2022/05/20 00:34:03;;;;;;;;;;;23.70;50.50;;;;;;6155302;28;19929;-54
2022/05/20 00:37:05;;;;;;;;;;;23.80;50.60;;;;;;6174753;28;20242;-51
2022/05/20 00:40:07;;;;;;;;;;;23.60;50.60;;;;;;6173059;28;20913;-51
2022/05/20 00:43:11;;;;;;;;;;;23.70;50.50;;;;;;6155905;28;19971;-53
2022/05/20 00:46:15;;;;;;;;;;;23.90;50.60;;;;;;6174662;28;19929;-55
2022/05/20 00:49:16;;;;;;;;;;;23.90;50.60;;;;;;6179441;28;19932;-54
2022/05/20 00:52:22;;;;;;;;;;;23.90;50.70;;;;;;6179798;28;19925;-51
2022/05/20 00:55:23;;;;;;;;;;;24.00;50.70;;;;;;6181022;28;19968;-54
2022/05/20 00:58:25;;;;;;;;;;;23.60;50.50;;;;;;6183928;28;20045;-52
2022/05/20 01:01:28;;;;;;;;;;;23.80;50.60;;;;;;6163835;28;19963;-53
2022/05/20 01:04:30;;;;;;;;;;;23.90;50.60;;;;;;6179494;28;20047;-56
2022/05/20 01:07:35;;;;;;;;;;;23.80;50.60;;;;;;6184764;28;19929;-54
2022/05/20 01:10:36;;;;;;;;;;;23.70;50.50;;;;;;6183836;28;20040;-53
2022/05/20 01:13:38;;;;;;;;;;;23.80;50.60;;;;;;6183173;28;19964;-51
2022/05/20 01:16:40;;;;;;;;;;;23.80;50.60;;;;;;6185235;28;20027;-54
2022/05/20 01:19:42;;;;;;;;;;;23.70;50.50;;;;;;6184768;28;19926;-53
2022/05/20 01:22:47;;;;;;;;;;;23.50;50.40;;;;;;6169627;28;20032;-54
2022/05/20 01:25:49;;;;;;;;;;;23.80;50.60;;;;;;6185110;28;20036;-54
2022/05/20 01:28:50;;;;;;;;;;;23.40;50.40;;;;;;6168369;28;19968;-50
2022/05/20 01:31:52;;;;;;;;;;;23.70;50.50;;;;;;6178958;28;19925;-51
2022/05/20 01:34:53;;;;;;;;;;;23.70;50.60;;;;;;6182674;28;19933;-51
2022/05/20 01:37:55;;;;;;;;;;;23.80;50.60;;;;;;6179950;28;20069;-53
2022/05/20 01:40:59;;;;;;;;;;;23.80;50.60;;;;;;6181659;28;20032;-54
2022/05/20 01:44:03;;;;;;;;;;;23.80;50.50;;;;;;6180220;28;19932;-53
2022/05/20 01:47:07;;;;;;;;;;;23.50;50.40;;;;;;6184926;28;19925;-55
2022/05/20 01:50:11;;;;;;;;;;;23.70;50.60;;;;;;6187706;28;19928;-54
2022/05/20 01:53:17;;;;;;;;;;;23.40;50.30;;;;;;6169287;28;19920;-53
2022/05/20 01:56:21;;;;;;;;;;;23.70;50.50;;;;;;6181467;28;20051;-52
2022/05/20 01:59:24;;;;;;;;;;;23.60;50.50;;;;;;6168748;28;19929;-53
2022/05/20 02:02:30;;;;;;;;;;;23.40;50.30;;;;;;6167165;28;20036;-53
2022/05/20 02:05:33;;;;;;;;;;;23.70;50.70;;;;;;6183361;28;20006;-53
2022/05/20 02:08:37;;;;;;;;;;;23.80;50.50;;;;;;6187871;28;19928;-53
2022/05/20 02:11:41;;;;;;;;;;;23.50;50.40;;;;;;6167973;28;20811;-52
2022/05/20 02:14:46;;;;;;;;;;;24.00;50.60;;;;;;6184015;28;21053;-49
2022/05/20 02:17:50;;;;;;;;;;;23.30;50.30;;;;;;6184675;28;19971;-53
2022/05/20 02:20:53;;;;;;;;;;;23.60;50.40;;;;;;6189476;28;19975;-52
2022/05/20 02:23:57;;;;;;;;;;;23.40;50.40;;;;;;6181188;28;20329;-50
2022/05/20 02:26:59;;;;;;;;;;;23.70;50.50;;;;;;6173560;28;19932;-51
2022/05/20 02:30:03;;;;;;;;;;;23.30;50.30;;;;;;6169933;28;20385;-55
2022/05/20 02:33:08;;;;;;;;;;;23.70;50.50;;;;;;6152234;28;20601;-51
2022/05/20 02:36:17;;;;;;;;;;;23.30;50.30;;;;;;6171057;28;20036;-50
2022/05/20 02:39:21;;;;;;;;;;;23.50;50.40;;;;;;6155109;28;20091;-54
2022/05/20 02:42:23;;;;;;;;;;;23.80;50.60;;;;;;6168214;28;20252;-52
2022/05/20 02:45:24;;;;;;;;;;;23.60;50.50;;;;;;6173289;28;20341;-50
2022/05/20 02:48:25;;;;;;;;;;;23.20;50.30;;;;;;6174099;28;19980;-52
2022/05/20 02:51:27;;;;;;;;;;;23.60;50.50;;;;;;6173277;28;20170;-51
2022/05/20 02:54:29;;;;;;;;;;;23.50;50.50;;;;;;6172395;28;20646;-53
2022/05/20 02:57:30;;;;;;;;;;;23.80;50.60;;;;;;6170266;28;20727;-49
2022/05/20 03:07:03;;;;;;;;;;;23.50;50.50;;;;;;6173974;28;19968;-55
2022/05/20 03:10:06;;;;;;;;;;;23.30;50.30;;;;;;6176465;28;20437;-52
2022/05/20 03:13:08;;;;;;;;;;;23.40;50.40;;;;;;6173527;28;20937;-53
2022/05/20 03:16:09;;;;;;;;;;;23.80;50.60;;;;;;6173577;28;19929;-49
2022/05/20 03:19:11;;;;;;;;;;;23.60;50.60;;;;;;6175179;28;20518;-49
2022/05/20 03:22:12;;;;;;;;;;;23.70;50.60;;;;;;6178931;28;20892;-52
2022/05/20 03:25:14;;;;;;;;;;;23.20;50.30;;;;;;6181719;28;19949;-49
2022/05/20 03:28:15;;;;;;;;;;;23.50;50.50;;;;;;6180472;28;19940;-53
2022/05/20 03:31:17;;;;;;;;;;;23.10;50.30;;;;;;6171407;28;20381;-53
2022/05/20 03:34:19;;;;;;;;;;;23.20;50.60;;;;;;6168294;28;19947;-51
2022/05/20 03:37:20;;;;;;;;;;;23.20;50.50;;;;;;6152194;28;20525;-53
2022/05/20 03:40:22;;;;;;;;;;;23.60;50.80;;;;;;6171463;28;20229;-54
2022/05/20 03:43:24;;;;;;;;;;;23.60;50.80;;;;;;6176743;28;19929;-51
2022/05/20 03:46:25;;;;;;;;;;;23.60;50.80;;;;;;6171968;28;20453;-52
2022/05/20 03:49:28;;;;;;;;;;;22.70;50.30;;;;;;6173139;28;20174;-50
2022/05/20 03:52:30;;;;;;;;;;;23.20;50.60;;;;;;6169116;28;20268;-54
2022/05/20 03:55:32;;;;;;;;;;;23.00;50.50;;;;;;6174736;28;20417;-54
2022/05/20 03:58:33;;;;;;;;;;;23.20;50.60;;;;;;6170329;28;20201;-55
2022/05/20 04:04:50;;;;;;;;;;;23.40;50.60;;;;;;6169648;28;20260;-50
2022/05/20 04:07:51;;;;;;;;;;;23.40;50.60;;;;;;6174130;28;20444;-54
2022/05/20 04:10:53;;;;;;;;;;;23.50;50.70;;;;;;6171883;28;19972;-56
2022/05/20 04:13:54;;;;;;;;;;;23.60;50.70;;;;;;6171445;28;19932;-49
2022/05/20 04:16:57;;;;;;;;;;;23.50;50.80;;;;;;6171879;28;20280;-51
2022/05/20 04:19:58;;;;;;;;;;;23.20;50.60;;;;;;6169494;28;20435;-51
2022/05/20 04:23:00;;;;;;;;;;;23.30;50.70;;;;;;6167408;28;20801;-51
2022/05/20 04:26:02;;;;;;;;;;;24.00;51.00;;;;;;6167462;28;20039;-50
2022/05/20 04:29:03;;;;;;;;;;;23.30;50.70;;;;;;6169153;28;20059;-53
2022/05/20 04:32:05;;;;;;;;;;;23.30;50.80;;;;;;6167921;28;19933;-51
2022/05/20 04:35:06;;;;;;;;;;;23.50;51.10;;;;;;6159975;28;19995;-48
2022/05/20 04:38:08;;;;;;;;;;;23.40;50.70;;;;;;6161639;28;19940;-51
2022/05/20 04:47:37;;;;;;;;;;;23.50;50.90;;;;;;6169994;28;19929;-53
2022/05/20 04:50:40;;;;;;;;;;;22.90;50.60;;;;;;6170034;28;20650;-54
2022/05/20 04:56:58;;;;;;;;;;;23.50;50.90;;;;;;6163678;28;19951;-50
2022/05/20 05:00:00;;;;;;;;;;;23.00;50.70;;;;;;6161070;28;19939;-51
2022/05/20 05:03:01;;;;;;;;;;;23.30;50.90;;;;;;6162977;28;19968;-53
2022/05/20 05:06:03;;;;;;;;;;;23.40;50.90;;;;;;6161376;28;20031;-53
2022/05/20 05:09:05;;;;;;;;;;;23.00;50.70;;;;;;6170013;28;19979;-55
2022/05/20 05:12:08;;;;;;;;;;;23.40;50.90;;;;;;6176886;28;20575;-52
2022/05/20 05:15:15;;;;;;;;;;;23.50;51.00;;;;;;6164420;28;20064;-54
2022/05/20 05:18:22;;;;;;;;;;;22.90;50.70;;;;;;6166939;28;20444;-51
2022/05/20 05:21:23;;;;;;;;;;;23.00;50.80;;;;;;6161716;28;20874;-52
2022/05/20 05:24:24;;;;;;;;;;;23.40;51.00;;;;;;6164045;28;20093;-50
2022/05/20 05:27:26;;;;;;;;;;;23.50;51.10;;;;;;6167038;28;20726;-53
2022/05/20 05:30:28;;;;;;;;;;;23.00;50.80;;;;;;6158404;28;19924;-52
2022/05/20 05:33:30;;;;;;;;;;;23.30;51.00;;;;;;6159899;28;20369;-51
2022/05/20 05:36:31;;;;;;;;;;;23.30;51.00;;;;;;6156958;28;19955;-50
2022/05/20 05:39:33;;;;;;;;;;;23.40;51.10;;;;;;6160622;28;20207;-51
2022/05/20 05:42:34;;;;;;;;;;;23.40;51.10;;;;;;6145622;28;20183;-49
2022/05/20 05:45:36;;;;;;;;;;;23.50;51.10;;;;;;6153288;28;19933;-52
2022/05/20 05:48:37;;;;;;;;;;;23.40;51.80;;;;;;6145308;28;20694;-52
2022/05/20 05:51:38;;;;;;;;;;;23.40;51.20;;;;;;6164678;28;20951;-56
2022/05/20 05:54:40;;;;;;;;;;;23.30;51.10;;;;;;6169917;28;20023;-50
2022/05/20 05:57:42;;;;;;;;;;;23.20;51.10;;;;;;6164438;28;20298;-54
2022/05/20 06:00:43;;;;;;;;;;;23.60;51.30;;;;;;6153162;28;19936;-50
2022/05/20 06:03:45;;;;;;;;;;;23.40;51.20;;;;;;6173435;28;19933;-51
2022/05/20 06:06:46;;;;;;;;;;;23.20;51.20;;;;;;6160573;28;20813;-54
2022/05/20 06:09:48;;;;;;;;;;;23.30;51.20;;;;;;6168732;28;19936;-54
2022/05/20 06:12:50;;;;;;;;;;;23.40;51.30;;;;;;6169600;28;19932;-54
2022/05/20 06:15:51;;;;;;;;;;;23.30;51.20;;;;;;6156457;28;19936;-49
2022/05/20 06:18:53;;;;;;;;;;;23.40;51.20;;;;;;6163646;28;21039;-52
2022/05/20 06:21:54;;;;;;;;;;;23.40;51.20;;;;;;6138614;28;20003;-52
2022/05/20 06:25:00;;;;;;;;;;;23.20;51.20;;;;;;6153418;28;19929;-51
2022/05/20 06:28:04;;;;;;;;;;;23.50;51.30;;;;;;6142598;28;19925;-49
2022/05/20 06:31:06;;;;;;;;;;;23.20;51.10;;;;;;6138546;28;19944;-51
2022/05/20 06:34:08;;;;;;;;;;;23.20;51.00;;;;;;6122022;28;19933;-53
2022/05/20 06:40:28;;;;;;;;;;;23.40;51.20;;;;;;6138915;28;20930;-54
2022/05/20 06:43:30;;;;;;;;;;;23.50;51.30;;;;;;6141742;28;19964;-50
2022/05/20 06:46:31;;;;;;;;;;;23.50;51.30;;;;;;6128807;28;20053;-52
2022/05/20 06:49:34;;;;;;;;;;;23.50;51.30;;;;;;6112879;28;19925;-53
2022/05/20 06:52:35;;;;;;;;;;;23.30;51.20;;;;;;6099112;28;19929;-52
2022/05/20 06:55:41;;;;;;;;;;;23.50;51.30;;;;;;6049859;28;19933;-48
2022/05/20 06:58:43;;;;;;;;;;;23.40;51.10;;;;;;6072126;28;20011;-49
2022/05/20 07:01:48;;;;;;;;;;;23.30;51.20;;;;;;6066305;28;20031;-51
2022/05/20 07:05:11;;;;;;;;;;;23.60;51.00;;;;;;6015275;28;19929;-49
2022/05/20 07:08:12;;;;;;;;;;;23.20;51.10;;;;;;6061650;28;19929;-49
2022/05/20 07:11:14;;;;;;;;;;;23.60;51.50;;;;;;6069848;28;21614;-49
2022/05/20 07:14:16;;;;;;;;;;;23.50;51.30;;;;;;6069171;28;21103;-48
2022/05/20 07:17:18;;;;;;;;;;;23.60;51.30;;;;;;6036399;28;19933;-50
2022/05/20 07:20:20;;;;;;;;;;;23.60;51.40;;;;;;6054837;28;21339;-49
2022/05/20 07:23:24;;;;;;;;;;;23.70;51.40;;;;;;6062326;28;19933;-48
2022/05/20 07:26:25;;;;;;;;;;;23.70;51.40;;;;;;6057561;28;19998;-46
2022/05/20 07:29:27;;;;;;;;;;;23.70;51.40;;;;;;6053015;28;19967;-47
2022/05/20 07:32:33;;;;;;;;;;;23.40;51.30;;;;;;6043092;28;19930;-49
2022/05/20 07:35:36;;;;;;;;;;;23.80;51.40;;;;;;6040487;28;19929;-51
2022/05/20 07:38:37;;;;;;;;;;;23.60;51.30;;;;;;6015133;28;20076;-48
2022/05/20 07:41:39;;;;;;;;;;;23.80;51.40;;;;;;6067252;28;21276;-48
2022/05/20 07:44:46;;;;;;;;;;;23.70;51.20;;;;;;6068909;28;20019;-51
2022/05/20 07:47:47;;;;;;;;;;;23.70;51.40;;;;;;6058897;28;19933;-50
2022/05/20 07:50:52;;;;;;;;;;;23.80;51.30;;;;;;6052376;28;19936;-53
2022/05/20 07:53:54;;;;;;;;;;;23.70;51.20;;;;;;6028295;28;19937;-51
2022/05/20 07:56:59;;;;;;;;;;;23.60;51.20;;;;;;6036683;28;19929;-48
2022/05/20 08:00:03;;;;;;;;;;;23.70;51.30;;;;;;6047129;28;20960;-49
2022/05/20 08:04:52;;;;;;;;;;;23.80;51.30;;;;;;6030940;28;19929;-50
2022/05/20 08:06:35;;;;;;;;;;;23.90;51.40;;;;;;6008419;28;19928;-48
2022/05/20 08:09:36;;;;;;;;;;;23.50;50.80;;;;;;6035520;28;20042;-48
2022/05/20 08:12:38;;;;;;;;;;;23.80;51.40;;;;;;6020652;28;21183;-46
2022/05/20 08:15:40;;;;;;;;;;;23.60;51.20;;;;;;6036600;28;20006;-51
2022/05/20 08:18:42;;;;;;;;;;;23.70;51.20;;;;;;6052848;28;20122;-48
2022/05/20 08:21:43;;;;;;;;;;;23.60;51.20;;;;;;6052700;28;19987;-46
2022/05/20 08:24:45;;;;;;;;;;;24.20;51.50;;;;;;6055073;28;20103;-49
2022/05/20 08:27:46;;;;;;;;;;;23.90;51.40;;;;;;6057230;28;19928;-47
2022/05/20 08:30:48;;;;;;;;;;;23.90;51.40;;;;;;6035299;28;20393;-50
2022/05/20 08:33:50;;;;;;;;;;;24.30;51.60;;;;;;6040030;28;21334;-50
2022/05/20 08:36:52;;;;;;;;;;;23.70;51.40;;;;;;6052505;28;19936;-49
2022/05/20 08:39:54;;;;;;;;;;;23.60;51.30;;;;;;6024164;28;20061;-55
2022/05/20 08:43:00;;;;;;;;;;;23.70;51.40;;;;;;6029400;28;19929;-50
2022/05/20 08:46:06;;;;;;;;;;;23.70;51.40;;;;;;6000396;28;19999;-51
2022/05/20 08:49:10;;;;;;;;;;;23.80;51.40;;;;;;5981672;28;19940;-49
2022/05/20 08:52:11;;;;;;;;;;;23.90;51.60;;;;;;6046146;28;20075;-53
2022/05/20 08:55:13;;;;;;;;;;;23.90;51.50;;;;;;6020551;28;20049;-50
2022/05/20 08:58:17;;;;;;;;;;;23.60;51.40;;;;;;6018594;28;19976;-52
2022/05/20 09:01:26;;;;;;;;;;;23.70;51.40;;;;;;6046849;28;19936;-49
2022/05/20 09:04:27;;;;;;;;;;;23.50;51.20;;;;;;6034163;28;19972;-47
2022/05/20 09:07:49;;;;;;;;;;;23.70;51.40;;;;;;6032221;28;22259;-47
2022/05/20 09:10:51;;;;;;;;;;;23.70;51.40;;;;;;6014692;28;19944;-50
2022/05/20 09:17:24;;;;;;;;;;;23.60;51.50;;;;;;6036748;28;20023;-52
2022/05/20 09:20:25;;;;;;;;;;;24.10;51.70;;;;;;6038801;28;19933;-49
2022/05/20 09:23:27;;;;;;;;;;;23.80;51.60;;;;;;6039559;28;20032;-51
2022/05/20 09:26:31;;;;;;;;;;;25.20;52.30;;;;;;6001501;28;19929;-50
2022/05/20 09:29:36;;;;;;;;;;;23.90;51.70;;;;;;6030264;28;19961;-50
2022/05/20 09:32:53;;;;;;;;;;;23.90;51.60;;;;;;6026321;28;19929;-51
2022/05/20 09:35:57;;;;;;;;;;;23.70;51.50;;;;;;6034403;28;19929;-50
2022/05/20 09:39:07;;;;;;;;;;;23.80;51.60;;;;;;6067889;28;19929;-51
2022/05/20 09:42:12;;;;;;;;;;;23.90;51.70;;;;;;6041683;28;19936;-50
2022/05/20 09:45:20;;;;;;;;;;;23.90;51.60;;;;;;6016907;28;24944;-54
2022/05/20 09:48:32;;;;;;;;;;;24.20;51.90;;;;;;6012951;28;20038;-52
2022/05/20 09:51:36;;;;;;;;;;;23.70;51.60;;;;;;6044114;28;19936;-49
2022/05/20 09:54:39;;;;;;;;;;;23.70;51.60;;;;;;6024811;28;20043;-49
2022/05/20 09:57:42;;;;;;;;;;;24.00;51.80;;;;;;6031661;28;19929;-51
2022/05/20 10:00:46;;;;;;;;;;;23.90;51.80;;;;;;6051496;28;20043;-47
2022/05/20 10:03:50;;;;;;;;;;;24.00;51.80;;;;;;6041954;28;21561;-49
2022/05/20 10:06:55;;;;;;;;;;;23.60;51.70;;;;;;6048032;28;21310;-49
2022/05/20 10:09:58;;;;;;;;;;;23.70;51.30;;;;;;6040678;28;21374;-50
2022/05/20 10:13:02;;;;;;;;;;;23.90;51.80;;;;;;6034531;28;19936;-49
2022/05/20 10:16:09;;;;;;;;;;;23.90;51.80;;;;;;6032771;28;19956;-49
2022/05/20 10:19:15;;;;;;;;;;;23.90;51.90;;;;;;6042513;28;20193;-52
2022/05/20 10:22:20;;;;;;;;;;;23.80;51.70;;;;;;6066723;28;19933;-49
2022/05/20 10:25:26;;;;;;;;;;;23.90;51.80;;;;;;6025914;28;20097;-52
2022/05/20 10:35:09;;;;;;;;;;;23.70;51.60;;;;;;6043673;28;19936;-52
2022/05/20 10:38:23;;;;;;;;;;;24.00;51.80;;;;;;6057015;28;20419;-53
2022/05/20 10:41:33;;;;;;;;;;;24.10;51.80;;;;;;6073975;28;21256;-51
2022/05/20 10:51:41;;;;;;;;;;;23.90;51.80;;;;;;6081984;28;20093;-54
2022/05/20 10:54:52;;;;;;;;;;;23.90;51.70;;;;;;6091655;28;20499;-51
2022/05/20 10:58:04;;;;;;;;;;;24.40;52.00;;;;;;6095406;28;19929;-53
2022/05/20 11:01:10;;;;;;;;;;;23.90;51.70;;;;;;6100586;28;20212;-52
2022/05/20 11:04:24;;;;;;;;;;;23.90;51.70;;;;;;6086834;28;21173;-50
2022/05/20 11:07:33;;;;;;;;;;;23.80;51.60;;;;;;6086105;28;19932;-48
2022/05/20 11:10:46;;;;;;;;;;;23.80;51.60;;;;;;6109647;28;19929;-50
2022/05/20 11:13:58;;;;;;;;;;;23.90;52.30;;;;;;6103247;28;20059;-50
2022/05/20 11:17:13;;;;;;;;;;;23.70;51.50;;;;;;6107150;28;20416;-52
2022/05/20 11:20:22;;;;;;;;;;;23.80;51.60;;;;;;6105176;28;20023;-52
2022/05/20 11:23:40;;;;;;;;;;;24.00;51.60;;;;;;6102120;28;19929;-53
2022/05/20 11:26:47;;;;;;;;;;;24.00;51.60;;;;;;6100691;28;19951;-53
2022/05/20 11:30:00;;;;;;;;;;;23.70;51.50;;;;;;6110396;28;19933;-50
2022/05/20 11:33:13;;;;;;;;;;;23.80;51.50;;;;;;6096995;28;19937;-51
2022/05/20 11:36:24;;;;;;;;;;;24.00;51.70;;;;;;6045675;28;19994;-51
2022/05/20 11:39:37;;;;;;;;;;;23.90;51.50;;;;;;6072430;28;19932;-51
2022/05/20 11:42:47;;;;;;;;;;;24.00;52.20;;;;;;6073239;28;19928;-48
2022/05/20 11:45:59;;;;;;;;;;;24.00;51.60;;;;;;6035591;28;19971;-51
2022/05/20 11:49:11;;;;;;;;;;;24.00;51.70;;;;;;6069176;28;19936;-50
2022/05/20 11:52:28;;;;;;;;;;;23.90;51.50;;;;;;6041039;28;19933;-49
2022/05/20 11:55:33;;;;;;;;;;;24.20;51.70;;;;;;5997606;28;19929;-51
2022/05/20 11:58:39;;;;;;;;;;;24.00;51.60;;;;;;5990882;28;19936;-50
2022/05/20 12:01:42;;;;;;;;;;;23.80;51.50;;;;;;5967257;28;21578;-54
2022/05/20 12:04:45;;;;;;;;;;;23.90;51.50;;;;;;5997771;28;19975;-53
2022/05/20 12:07:46;;;;;;;;;;;23.90;51.50;;;;;;5977733;28;20047;-49
2022/05/20 12:10:49;;;;;;;;;;;24.00;51.60;;;;;;6019787;28;19929;-49
2022/05/20 12:14:00;;;;;;;;;;;23.90;51.50;;;;;;5975167;28;19980;-50
2022/05/20 12:17:03;;;;;;;;;;;24.10;51.40;;;;;;6000240;28;22090;-49
2022/05/20 12:27:13;;;;;;;;;;;23.90;51.20;;;;;;6013153;28;19968;-51
2022/05/20 12:30:31;;;;;;;;;;;23.90;51.00;;;;;;6028288;28;20047;-50
2022/05/20 12:33:47;;;;;;;;;;;23.70;51.00;;;;;;6006821;28;22222;-53
2022/05/20 12:36:49;;;;;;;;;;;24.30;51.30;;;;;;6014967;28;19937;-49
2022/05/20 12:39:51;;;;;;;;;;;24.10;51.20;;;;;;5985220;28;19980;-50
2022/05/20 12:42:56;;;;;;;;;;;23.90;51.10;;;;;;6001086;28;19935;-50
2022/05/20 12:45:58;;;;;;;;;;;23.90;51.20;;;;;;5990825;28;20010;-51
2022/05/20 12:48:59;;;;;;;;;;;24.00;51.20;;;;;;6012683;28;20871;-51
2022/05/20 12:52:11;;;;;;;;;;;24.00;51.20;;;;;;6021750;28;19930;-53
2022/05/20 12:55:16;;;;;;;;;;;24.00;51.10;;;;;;6017191;28;20047;-50
2022/05/20 12:58:22;;;;;;;;;;;24.00;51.20;;;;;;6003988;28;19964;-51
2022/05/20 13:01:24;;;;;;;;;;;23.90;51.10;;;;;;6022859;28;21883;-48
2022/05/20 13:04:28;;;;;;;;;;;24.00;51.20;;;;;;6020937;28;19929;-52
2022/05/20 13:07:32;;;;;;;;;;;23.80;51.10;;;;;;6030217;28;21232;-48
2022/05/20 13:10:35;;;;;;;;;;;23.80;51.00;;;;;;5983474;28;19929;-50
2022/05/20 13:13:37;;;;;;;;;;;23.90;51.10;;;;;;6020803;28;19945;-48
2022/05/20 13:16:39;;;;;;;;;;;24.00;51.10;;;;;;6031891;28;19936;-49
2022/05/20 13:19:45;;;;;;;;;;;23.70;51.00;;;;;;6023164;28;20069;-51
2022/05/20 13:22:49;;;;;;;;;;;23.70;50.90;;;;;;5995339;28;19935;-53
2022/05/20 13:25:51;;;;;;;;;;;23.70;50.90;;;;;;6053332;28;21771;-51
2022/05/20 13:28:59;;;;;;;;;;;23.90;51.00;;;;;;6048723;28;19929;-49
2022/05/20 13:32:15;;;;;;;;;;;23.50;50.70;;;;;;6039937;28;19929;-50
2022/05/20 13:35:17;;;;;;;;;;;23.70;50.80;;;;;;6014200;28;19928;-51
2022/05/20 13:38:27;;;;;;;;;;;23.80;50.80;;;;;;6057458;28;20366;-51
2022/05/20 13:41:29;;;;;;;;;;;23.80;50.70;;;;;;6067834;28;19968;-49
2022/05/20 13:44:30;;;;;;;;;;;23.60;50.70;;;;;;6045025;28;19929;-48
2022/05/20 13:50:48;;;;;;;;;;;23.90;50.80;;;;;;6078889;28;19936;-52
2022/05/20 13:53:50;;;;;;;;;;;23.90;50.70;;;;;;6062807;28;19929;-51
2022/05/20 13:56:57;;;;;;;;;;;24.00;50.80;;;;;;6058327;28;20043;-51
2022/05/20 14:00:01;;;;;;;;;;;23.90;50.70;;;;;;6059174;28;19929;-51
2022/05/20 14:03:05;;;;;;;;;;;23.90;50.70;;;;;;6055745;28;19929;-54
2022/05/20 14:06:09;;;;;;;;;;;24.00;50.70;;;;;;6041078;28;20000;-54
2022/05/20 14:09:12;;;;;;;;;;;24.00;50.70;;;;;;6061256;28;21017;-52
2022/05/20 14:12:14;;;;;;;;;;;24.00;50.60;;;;;;6009066;28;19929;-50
2022/05/20 14:15:18;;;;;;;;;;;24.00;50.60;;;;;;6033047;28;20106;-53
2022/05/20 14:18:21;;;;;;;;;;;23.60;50.40;;;;;;6069811;28;19933;-51
2022/05/20 14:21:28;;;;;;;;;;;24.00;50.60;;;;;;6030555;28;19930;-52
2022/05/20 14:24:33;;;;;;;;;;;23.80;50.40;;;;;;6052305;28;19929;-51
2022/05/20 14:27:38;;;;;;;;;;;23.90;50.40;;;;;;6047312;28;19929;-50
2022/05/20 14:30:42;;;;;;;;;;;24.10;50.50;;;;;;6045725;28;19929;-53
2022/05/20 14:33:46;;;;;;;;;;;24.10;50.50;;;;;;6046543;28;19929;-54
2022/05/20 14:36:47;;;;;;;;;;;24.10;50.50;;;;;;6050210;28;20708;-53
2022/05/20 14:39:53;;;;;;;;;;;23.90;50.40;;;;;;6019100;28;19951;-51
2022/05/20 14:42:55;;;;;;;;;;;24.00;50.40;;;;;;6058709;28;19971;-51
2022/05/20 14:45:58;;;;;;;;;;;23.70;50.20;;;;;;6039752;28;21105;-53
2022/05/20 14:49:00;;;;;;;;;;;24.30;50.40;;;;;;6048864;28;19933;-54
2022/05/20 14:52:12;;;;;;;;;;;23.50;50.00;;;;;;6077119;28;20599;-53
2022/05/20 14:55:15;;;;;;;;;;;24.00;50.30;;;;;;6049377;28;20918;-53
2022/05/20 14:58:26;;;;;;;;;;;24.00;50.20;;;;;;6070111;28;20003;-55
2022/05/20 15:01:28;;;;;;;;;;;24.10;50.20;;;;;;6070952;28;20222;-52
2022/05/20 15:04:31;;;;;;;;;;;24.20;50.30;;;;;;6079722;28;19929;-55
2022/05/20 15:07:32;;;;;;;;;;;24.10;50.30;;;;;;6089088;28;19936;-53
2022/05/20 15:10:35;;;;;;;;;;;24.00;50.20;;;;;;6086615;28;20090;-55
2022/05/20 15:13:36;;;;;;;;;;;24.00;50.20;;;;;;6091248;28;20071;-52
2022/05/20 15:16:38;;;;;;;;;;;24.20;50.30;;;;;;6069706;28;19975;-59
2022/05/20 15:19:39;;;;;;;;;;;24.20;50.20;;;;;;6102061;28;20149;-57
2022/05/20 15:22:40;;;;;;;;;;;24.10;50.10;;;;;;6110090;28;20840;-57
2022/05/20 15:25:43;;;;;;;;;;;24.00;50.00;;;;;;6096075;28;19935;-55
2022/05/20 15:28:47;;;;;;;;;;;24.10;50.10;;;;;;6109378;28;20067;-50
2022/05/20 15:35:06;;;;;;;;;;;24.30;50.20;;;;;;6103907;28;20052;-52
2022/05/20 15:38:09;;;;;;;;;;;24.20;50.10;;;;;;6080743;28;19998;-56
2022/05/20 15:41:11;;;;;;;;;;;24.00;50.00;;;;;;6083320;28;20043;-55
2022/05/20 15:44:12;;;;;;;;;;;24.20;50.00;;;;;;6110950;28;19936;-58
2022/05/20 15:47:15;;;;;;;;;;;24.20;50.00;;;;;;6097668;28;19929;-60
2022/05/20 15:50:17;;;;;;;;;;;24.30;50.00;;;;;;6098300;28;21132;-60
2022/05/20 15:53:18;;;;;;;;;;;24.20;49.90;;;;;;6104330;28;20162;-60
2022/05/20 15:56:22;;;;;;;;;;;24.30;50.00;;;;;;6123790;28;20206;-59
2022/05/20 15:59:25;;;;;;;;;;;24.30;50.00;;;;;;6100342;28;20492;-56
2022/05/20 16:02:27;;;;;;;;;;;24.40;50.00;;;;;;6082454;28;21359;-58
2022/05/20 16:05:29;;;;;;;;;;;24.20;49.90;;;;;;6082516;28;20682;-57
2022/05/20 16:08:30;;;;;;;;;;;24.40;50.00;;;;;;6082212;28;21134;-57
2022/05/20 16:11:32;;;;;;;;;;;24.50;50.00;;;;;;6072715;28;20423;-60
2022/05/20 16:14:34;;;;;;;;;;;24.30;49.90;;;;;;6044436;28;20039;-53
2022/05/20 16:17:35;;;;;;;;;;;24.30;49.80;;;;;;6088820;28;20448;-52
2022/05/20 16:20:38;;;;;;;;;;;24.40;49.90;;;;;;6098043;28;20040;-58
2022/05/20 16:23:41;;;;;;;;;;;24.30;49.90;;;;;;6094124;28;20294;-58
2022/05/20 16:26:43;;;;;;;;;;;24.40;49.90;;;;;;6093791;28;20130;-59
2022/05/20 16:29:44;;;;;;;;;;;24.20;49.80;;;;;;6123832;28;20304;-56
2022/05/20 16:32:46;;;;;;;;;;;24.40;49.90;;;;;;6121699;28;19929;-60
2022/05/20 16:35:49;;;;;;;;;;;24.40;49.90;;;;;;6083480;28;20129;-59
2022/05/20 16:38:51;;;;;;;;;;;24.70;50.00;;;;;;6069830;28;21530;-57
2022/05/20 16:41:53;;;;;;;;;;;24.70;50.00;;;;;;6086049;28;20267;-61
2022/05/20 16:44:55;;;;;;;;;;;24.40;49.80;;;;;;6135769;28;21730;-58
2022/05/20 16:47:57;;;;;;;;;;;24.50;49.80;;;;;;6142868;28;19929;-56
2022/05/20 16:51:00;;;;;;;;;;;24.40;49.70;;;;;;6118468;28;20414;-57
2022/05/20 16:54:04;;;;;;;;;;;24.50;49.70;;;;;;6102478;28;20237;-57
2022/05/20 17:03:35;;;;;;;;;;;24.30;49.50;;;;;;6126832;28;21935;-58
2022/05/20 17:06:37;;;;;;;;;;;24.60;49.70;;;;;;6154795;28;19929;-59
2022/05/20 17:09:38;;;;;;;;;;;24.50;49.60;;;;;;6149837;28;20393;-57
2022/05/20 17:12:40;;;;;;;;;;;24.60;49.60;;;;;;6145979;28;19983;-55
2022/05/20 17:15:42;;;;;;;;;;;24.70;49.60;;;;;;6148375;28;20055;-53
2022/05/20 17:18:43;;;;;;;;;;;24.50;49.50;;;;;;6138110;28;20011;-56
2022/05/20 17:25:01;;;;;;;;;;;24.30;49.40;;;;;;6150891;28;19929;-56
2022/05/20 17:28:04;;;;;;;;;;;24.50;49.50;;;;;;6129545;28;19939;-57
2022/05/20 17:31:05;;;;;;;;;;;24.80;49.60;;;;;;6164420;28;19930;-57
2022/05/20 17:34:06;;;;;;;;;;;24.60;49.50;;;;;;6167915;28;22039;-54
2022/05/20 17:37:08;;;;;;;;;;;24.60;49.50;;;;;;6167586;28;19925;-55
2022/05/20 17:40:10;;;;;;;;;;;24.50;50.00;;;;;;6175644;28;19924;-57
2022/05/20 17:43:12;;;;;;;;;;;24.60;49.40;;;;;;6170676;28;20038;-54
2022/05/20 17:46:13;;;;;;;;;;;24.60;49.40;;;;;;6160151;28;19999;-56
2022/05/20 17:49:15;;;;;;;;;;;24.70;49.40;;;;;;6165147;28;19968;-56
2022/05/20 17:52:18;;;;;;;;;;;24.50;49.20;;;;;;6170304;28;20211;-54
2022/05/20 17:55:19;;;;;;;;;;;24.60;49.30;;;;;;6150132;28;19950;-57
2022/05/20 17:58:21;;;;;;;;;;;24.60;49.20;;;;;;6166246;28;20068;-57
2022/05/20 18:01:22;;;;;;;;;;;24.80;49.30;;;;;;6162433;28;19929;-54
2022/05/20 18:04:24;;;;;;;;;;;24.70;49.30;;;;;;6170674;28;19968;-53
2022/05/20 18:07:25;;;;;;;;;;;24.60;49.10;;;;;;6170975;28;19929;-55
2022/05/20 18:10:27;;;;;;;;;;;24.70;49.20;;;;;;6172889;28;19927;-58
2022/05/20 18:13:29;;;;;;;;;;;24.70;49.10;;;;;;6168351;28;20051;-56
2022/05/20 18:16:30;;;;;;;;;;;24.70;49.20;;;;;;6159709;28;19986;-53
2022/05/20 18:19:32;;;;;;;;;;;24.70;49.10;;;;;;6159469;28;19932;-56
2022/05/20 18:22:34;;;;;;;;;;;24.70;49.10;;;;;;6131975;28;20167;-52
2022/05/20 18:25:36;;;;;;;;;;;24.70;49.10;;;;;;6155577;28;20797;-58
2022/05/20 18:28:38;;;;;;;;;;;24.60;49.00;;;;;;6158834;28;20167;-52
2022/05/20 18:31:40;;;;;;;;;;;24.90;49.10;;;;;;6161739;28;20038;-53
2022/05/20 18:41:08;;;;;;;;;;;24.80;49.10;;;;;;6165066;28;20814;-57
2022/05/20 18:44:10;;;;;;;;;;;24.90;49.00;;;;;;6180445;28;19964;-55
2022/05/20 18:47:12;;;;;;;;;;;24.70;48.90;;;;;;6180695;28;20667;-53
2022/05/20 18:50:15;;;;;;;;;;;24.80;49.00;;;;;;6166042;28;19929;-54
2022/05/20 18:53:17;;;;;;;;;;;24.90;49.00;;;;;;6181213;28;19927;-56
2022/05/20 18:56:19;;;;;;;;;;;24.80;48.90;;;;;;6179122;28;20003;-53
2022/05/20 18:59:21;;;;;;;;;;;24.90;49.00;;;;;;6159900;28;19936;-54